Terminal Aerodrome Forecast
Issued by NWS Springfield, MO

Home | Current Version | Previous Version | Text Only | Print | Product List | Glossary On
Versions: 1 2 3 4 5 6 7 8 9 10 11 12 13 14 15 16 17 18 19 20 21 22 23 24 25 26 27 28 29 30 31 32 33 34 35
000
FTUS43 KSGF 281700 CCA
TAFSGF
TAF COR
KSGF 281732Z 2818/0118 14007KT 1SM -SN BR OVC007
      TEMPO 2818/2822 1/2SM SN FG OVC005
     FM282200 14007KT 1/2SM SN OVC005
     FM010100 14005KT 1SM -SN OVC007
     FM010600 15005KT 3SM -SN BR OVC005
      TEMPO 0106/0110 2SM -FZRASN
     FM011700 34008KT 5SM -SHRA BR OVC008=

USA.gov is the U.S. government's official web portal to all federal, state and local government web resources and services.